createdAt,value
2022-11-21T00:01:59.450Z,3.90
2022-11-21T00:04:26.339Z,3.95
2022-11-21T00:06:53.073Z,3.67
2022-11-21T00:09:19.536Z,4.35
2022-11-21T00:14:12.617Z,4.40
2022-11-21T00:16:39.151Z,5.20
2022-11-21T00:19:05.702Z,6.00
2022-11-21T00:23:58.641Z,3.75
2022-11-21T00:26:25.151Z,3.70
2022-11-21T00:28:51.728Z,4.13
2022-11-21T00:31:23.011Z,4.72
2022-11-21T00:33:49.556Z,4.97
2022-11-21T00:36:16.126Z,4.00
2022-11-21T00:38:42.641Z,5.72
2022-11-21T00:41:09.213Z,4.47
2022-11-21T00:43:35.850Z,5.13
2022-11-21T00:46:03.102Z,4.20
2022-11-21T00:48:30.902Z,3.92
2022-11-21T00:50:57.580Z,3.25
2022-11-21T00:53:24.094Z,4.07
2022-11-21T00:55:50.589Z,3.85
2022-11-21T01:00:43.604Z,4.80
2022-11-21T01:03:10.207Z,6.43
2022-11-21T01:05:36.788Z,4.18
2022-11-21T01:08:03.379Z,4.32
2022-11-21T01:10:29.844Z,5.15
2022-11-21T01:15:22.808Z,4.95
2022-11-21T01:17:49.374Z,3.60
2022-11-21T01:20:15.947Z,3.25
2022-11-21T01:22:42.501Z,3.90
2022-11-21T01:25:09.203Z,3.70
2022-11-21T01:27:35.803Z,2.92
2022-11-21T01:30:02.374Z,2.45
2022-11-21T01:32:28.875Z,3.30
2022-11-21T01:37:21.723Z,3.72
2022-11-21T01:42:14.734Z,3.53
2022-11-21T01:44:53.486Z,2.78
2022-11-21T01:47:22.502Z,3.80
2022-11-21T01:49:51.790Z,3.50
2022-11-21T01:52:26.058Z,3.28
2022-11-21T01:55:01.356Z,3.05
2022-11-21T01:57:32.425Z,3.28
2022-11-21T02:00:02.201Z,3.03
2022-11-21T02:02:32.866Z,3.75
2022-11-21T02:05:01.191Z,2.70
2022-11-21T02:07:34.091Z,2.75
2022-11-21T02:10:03.241Z,3.13
2022-11-21T02:12:33.926Z,2.13
2022-11-21T02:15:01.449Z,2.75
2022-11-21T02:17:29.970Z,2.85
2022-11-21T02:19:59.837Z,3.28
2022-11-21T02:22:30.417Z,2.63
2022-11-21T02:25:05.550Z,2.60
2022-11-21T02:27:32.387Z,3.40
2022-11-21T02:29:59.122Z,2.50
2022-11-21T02:32:36.150Z,3.03
2022-11-21T02:37:30.297Z,3.13
2022-11-21T02:40:01.369Z,2.65
2022-11-21T02:42:36.738Z,2.95
2022-11-21T02:45:13.162Z,3.05
2022-11-21T02:47:41.699Z,3.25
2022-11-21T02:50:19.813Z,2.90
2022-11-21T02:52:46.470Z,3.00
2022-11-21T02:55:15.238Z,2.90
2022-11-21T02:57:42.376Z,2.85
2022-11-21T03:00:11.237Z,2.63
2022-11-21T03:02:38.012Z,2.53
2022-11-21T03:05:06.991Z,3.28
2022-11-21T03:07:34.104Z,2.92
2022-11-21T03:10:00.901Z,2.80
2022-11-21T03:12:27.457Z,2.80
2022-11-21T03:14:53.967Z,3.15
2022-11-21T03:17:20.509Z,3.08
2022-11-21T03:19:47.056Z,3.13
2022-11-21T03:22:14.991Z,2.85
2022-11-21T03:24:41.959Z,2.65
2022-11-21T03:27:08.408Z,2.90
2022-11-21T03:29:35.009Z,2.78
2022-11-21T03:32:01.566Z,3.30
2022-11-21T03:34:28.242Z,2.60
2022-11-21T03:36:54.902Z,3.35
2022-11-21T03:41:47.886Z,2.80
2022-11-21T03:44:14.467Z,3.25
2022-11-21T03:46:44.421Z,3.03
2022-11-21T03:49:12.703Z,3.20
2022-11-21T03:51:39.923Z,3.42
2022-11-21T03:54:07.465Z,2.80
2022-11-21T03:56:34.400Z,2.53
2022-11-21T03:59:01.448Z,3.05
2022-11-21T04:01:31.246Z,3.00
2022-11-21T04:04:00.458Z,3.13
2022-11-21T04:06:27.012Z,3.00
2022-11-21T04:08:53.767Z,2.45
2022-11-21T04:11:23.401Z,2.55
2022-11-21T04:13:50.907Z,3.03
2022-11-21T04:16:17.396Z,3.78
2022-11-21T04:18:43.924Z,2.90
2022-11-21T04:23:36.927Z,2.70
2022-11-21T04:28:29.986Z,2.67
2022-11-21T04:31:02.287Z,3.17
2022-11-21T04:33:30.294Z,3.10
2022-11-21T04:35:56.813Z,2.85
2022-11-21T04:38:23.358Z,2.85
2022-11-21T04:40:49.903Z,3.00
2022-11-21T04:43:16.408Z,2.55
2022-11-21T04:45:44.562Z,2.80
2022-11-21T04:48:11.741Z,2.22
2022-11-21T04:50:38.308Z,2.38
2022-11-21T04:53:04.911Z,2.28
2022-11-21T04:55:32.401Z,2.75
2022-11-21T04:58:00.108Z,3.00
2022-11-21T05:00:26.674Z,3.47
2022-11-21T05:02:53.292Z,2.30
2022-11-21T05:05:19.975Z,3.20
2022-11-21T05:07:46.477Z,3.78
2022-11-21T05:10:13.008Z,3.05
2022-11-21T05:12:58.058Z,2.90
2022-11-21T05:15:25.161Z,5.00
2022-11-21T05:17:52.132Z,3.95
2022-11-21T05:20:19.073Z,3.70
2022-11-21T05:22:50.757Z,2.63
2022-11-21T05:25:17.267Z,2.20
2022-11-21T05:27:43.819Z,2.90
2022-11-21T05:30:11.748Z,2.60
2022-11-21T05:32:38.245Z,2.70
2022-11-21T05:35:05.207Z,2.13
2022-11-21T05:37:31.675Z,2.17
2022-11-21T05:42:44.605Z,2.03
2022-11-21T05:45:11.167Z,2.80
2022-11-21T05:47:37.760Z,2.20
2022-11-21T05:50:04.814Z,2.88
2022-11-21T05:52:31.363Z,2.65
2022-11-21T05:54:57.845Z,3.10
2022-11-21T05:57:24.414Z,2.70
2022-11-21T05:59:50.927Z,2.85
2022-11-21T06:02:36.007Z,3.63
2022-11-21T06:05:02.509Z,2.60
2022-11-21T06:09:55.524Z,3.47
2022-11-21T06:12:25.482Z,2.67
2022-11-21T06:14:52.495Z,2.90
2022-11-21T06:17:18.979Z,3.03
2022-11-21T06:19:45.750Z,2.67
2022-11-21T06:22:12.292Z,2.55
2022-11-21T06:24:38.830Z,3.90
2022-11-21T06:27:05.320Z,4.13
2022-11-21T06:29:31.829Z,3.47
2022-11-21T06:31:58.394Z,2.72
2022-11-21T06:34:27.274Z,2.95
2022-11-21T06:36:54.182Z,3.17
2022-11-21T06:39:20.733Z,2.90
2022-11-21T06:41:51.031Z,3.30
2022-11-21T06:44:20.936Z,3.38
2022-11-21T06:46:51.137Z,3.83
2022-11-21T06:49:18.542Z,6.25
2022-11-21T06:51:45.089Z,4.40
2022-11-21T06:54:16.522Z,3.45
2022-11-21T06:56:43.876Z,3.67
2022-11-21T06:59:10.684Z,10.82
2022-11-21T07:01:37.375Z,3.92
2022-11-21T07:04:04.074Z,4.10
2022-11-21T07:06:30.595Z,6.55
2022-11-21T07:11:44.123Z,5.93
2022-11-21T07:14:10.835Z,3.60
2022-11-21T07:16:37.408Z,4.68
2022-11-21T07:19:03.946Z,4.07
2022-11-21T07:21:30.434Z,10.10
2022-11-21T07:23:57.027Z,5.93
2022-11-21T07:26:23.531Z,5.72
2022-11-21T07:28:50.056Z,4.00
2022-11-21T07:33:46.808Z,5.20
2022-11-21T07:36:14.154Z,3.60
2022-11-21T07:38:41.741Z,8.13
2022-11-21T07:41:09.046Z,3.55
2022-11-21T07:43:35.690Z,3.92
2022-11-21T07:46:02.354Z,2.80
2022-11-21T07:48:28.828Z,3.17
2022-11-21T07:53:21.912Z,2.92
2022-11-21T07:55:48.428Z,4.45
2022-11-21T07:58:16.723Z,3.72
2022-11-21T08:00:43.830Z,3.05
2022-11-21T08:03:12.288Z,3.88
2022-11-21T08:05:41.573Z,3.45
2022-11-21T08:08:09.751Z,4.05
2022-11-21T08:10:42.000Z,6.90
2022-11-21T08:13:09.071Z,3.42
2022-11-21T08:15:36.076Z,3.25
2022-11-21T08:18:13.551Z,4.47
2022-11-21T08:20:40.421Z,3.63
2022-11-21T08:23:07.759Z,3.15
2022-11-21T08:25:36.550Z,3.05
2022-11-21T08:28:03.514Z,5.03
2022-11-21T08:30:30.560Z,3.47
2022-11-21T08:33:00.927Z,4.20
2022-11-21T08:35:28.407Z,4.53
2022-11-21T08:37:59.198Z,2.83
2022-11-21T08:40:27.473Z,3.97
2022-11-21T08:43:20.029Z,4.03
2022-11-21T08:45:46.516Z,3.55
2022-11-21T08:50:39.629Z,3.40
2022-11-21T08:53:06.139Z,5.43
2022-11-21T08:57:59.413Z,5.97
2022-11-21T09:00:26.917Z,3.50
2022-11-21T09:02:53.595Z,2.97
2022-11-21T09:05:20.272Z,4.85
2022-11-21T09:07:47.502Z,2.58
2022-11-21T09:10:14.584Z,3.05
2022-11-21T09:12:41.093Z,2.60
2022-11-21T09:18:03.862Z,2.70
2022-11-21T09:20:39.551Z,3.08
2022-11-21T09:23:13.731Z,6.45
2022-11-21T09:25:40.891Z,4.53
2022-11-21T09:28:09.571Z,3.85
2022-11-21T09:30:37.092Z,3.10
2022-11-21T09:33:08.214Z,4.32
2022-11-21T09:35:34.713Z,5.25
2022-11-21T09:40:30.553Z,2.95
2022-11-21T09:43:10.409Z,3.17
2022-11-21T09:45:47.600Z,3.70
2022-11-21T09:48:23.832Z,4.13
2022-11-21T09:50:57.060Z,3.17
2022-11-21T09:53:33.330Z,3.17
2022-11-21T09:56:06.389Z,3.80
2022-11-21T09:58:42.222Z,3.30
2022-11-21T10:01:18.121Z,3.30
2022-11-21T10:03:50.881Z,3.17
2022-11-21T10:06:17.308Z,2.78
2022-11-21T10:12:04.311Z,3.10
2022-11-21T10:15:05.120Z,3.33
2022-11-21T10:17:48.044Z,2.78
2022-11-21T10:20:46.322Z,2.50
2022-11-21T10:25:56.645Z,4.00
2022-11-21T10:28:41.817Z,5.63
2022-11-21T10:31:14.235Z,4.03
2022-11-21T10:33:41.431Z,3.15
2022-11-21T10:36:34.174Z,4.63
2022-11-21T10:39:05.968Z,2.78
2022-11-21T10:42:05.559Z,3.58
2022-11-21T10:44:50.797Z,3.03
2022-11-21T10:47:27.458Z,3.50
2022-11-21T10:50:09.261Z,3.35
2022-11-21T10:52:59.358Z,3.15
2022-11-21T10:55:25.881Z,3.15
2022-11-21T11:00:27.414Z,2.97
2022-11-21T11:02:57.033Z,3.35
2022-11-21T11:05:28.101Z,3.33
2022-11-21T11:08:14.730Z,3.40
2022-11-21T11:11:13.590Z,4.13
2022-11-21T11:14:00.491Z,2.75
2022-11-21T11:33:38.453Z,2.92
2022-11-21T11:36:44.608Z,3.33
2022-11-21T11:39:19.530Z,2.95
2022-11-21T11:42:10.299Z,3.70
2022-11-21T11:45:11.564Z,3.30
2022-11-21T11:47:54.860Z,3.70
2022-11-21T11:50:30.497Z,3.15
2022-11-21T11:53:16.246Z,3.83
2022-11-21T11:56:13.100Z,3.40
2022-11-21T11:58:45.794Z,3.67
2022-11-21T12:01:15.086Z,3.22
2022-11-21T12:04:02.316Z,3.13
2022-11-21T12:07:10.670Z,3.50
2022-11-21T12:09:20.979Z,3.15
2022-11-21T12:15:26.209Z,3.50
2022-11-21T12:18:20.700Z,4.82
2022-11-21T12:20:59.556Z,3.33
2022-11-21T12:23:44.924Z,3.00
2022-11-21T12:26:28.886Z,3.03
2022-11-21T12:28:58.355Z,2.90
2022-11-21T12:31:42.477Z,3.30
2022-11-21T12:34:26.269Z,3.13
2022-11-21T12:36:59.525Z,2.40
2022-11-21T12:39:29.022Z,2.72
2022-11-21T12:42:43.761Z,2.72
2022-11-21T12:45:38.076Z,2.22
2022-11-21T12:48:26.090Z,2.63
2022-11-21T12:51:27.576Z,3.30
2022-11-21T12:54:31.623Z,3.88
2022-11-21T12:57:08.813Z,2.78
2022-11-21T12:59:50.879Z,2.83
2022-11-21T13:02:42.149Z,3.00
2022-11-21T13:05:13.767Z,3.40
2022-11-21T13:07:40.658Z,3.22
2022-11-21T13:10:14.477Z,2.40
2022-11-21T13:12:49.843Z,2.28
2022-11-21T13:15:22.239Z,2.63
2022-11-21T13:18:12.955Z,3.17
2022-11-21T13:20:49.467Z,3.05
2022-11-21T13:23:34.313Z,2.50
2022-11-21T13:26:00.957Z,2.65
2022-11-21T13:28:32.675Z,3.03
2022-11-21T13:31:01.589Z,2.58
2022-11-21T13:33:39.831Z,2.58
2022-11-21T13:36:07.715Z,2.88
2022-11-21T13:38:54.130Z,2.78
2022-11-21T13:41:54.881Z,2.90
2022-11-21T13:44:33.583Z,3.28
2022-11-21T13:47:15.045Z,2.78
2022-11-21T13:49:44.502Z,2.80
2022-11-21T13:52:26.267Z,2.45
2022-11-21T13:55:35.449Z,2.17
2022-11-21T13:58:29.585Z,2.42
2022-11-21T14:01:19.745Z,2.55
2022-11-21T14:04:04.672Z,3.30
2022-11-21T14:06:44.916Z,2.58
2022-11-21T14:09:23.228Z,2.65
2022-11-21T14:11:55.789Z,3.13
2022-11-21T14:14:28.263Z,3.00
2022-11-21T14:17:17.536Z,2.67
2022-11-21T14:19:44.558Z,2.85
2022-11-21T14:22:35.123Z,2.72
2022-11-21T14:25:08.780Z,3.25
2022-11-21T14:27:44.936Z,2.55
2022-11-21T14:30:32.630Z,2.75
2022-11-21T14:33:41.731Z,2.17
2022-11-21T14:36:29.984Z,2.75
2022-11-21T14:39:34.690Z,2.53
2022-11-21T14:41:55.275Z,2.85
2022-11-21T14:44:23.084Z,2.50
2022-11-21T14:46:50.805Z,2.80
2022-11-21T14:49:17.260Z,2.63
2022-11-21T14:54:25.149Z,3.65
2022-11-21T14:56:59.593Z,3.08
2022-11-21T14:59:41.633Z,3.00
2022-11-21T15:02:14.881Z,2.92
2022-11-21T15:04:42.920Z,3.10
2022-11-21T15:07:31.825Z,3.60
2022-11-21T15:10:28.748Z,2.97
2022-11-21T15:12:48.251Z,2.78
2022-11-21T15:15:36.207Z,3.33
2022-11-21T15:20:55.692Z,2.95
2022-11-21T15:23:25.827Z,3.17
2022-11-21T15:25:55.476Z,2.75
2022-11-21T15:28:24.769Z,2.47
2022-11-21T15:31:19.926Z,2.35
2022-11-21T15:34:27.374Z,3.60
2022-11-21T15:36:43.252Z,2.35
2022-11-21T15:41:38.990Z,2.53
2022-11-21T15:44:05.373Z,3.15
2022-11-21T15:49:31.012Z,3.17
2022-11-21T15:52:09.072Z,3.83
2022-11-21T15:54:36.167Z,3.90
2022-11-21T15:59:29.176Z,4.60
2022-11-21T16:01:55.892Z,4.20
2022-11-21T16:04:25.834Z,4.72
2022-11-21T16:06:53.701Z,4.43
2022-11-21T16:09:20.325Z,3.90
2022-11-21T16:11:47.144Z,4.65
2022-11-21T16:14:15.984Z,3.50
2022-11-21T16:16:43.921Z,4.43
2022-11-21T16:19:15.017Z,4.00
2022-11-21T16:21:41.912Z,3.95
2022-11-21T16:24:08.627Z,5.95
2022-11-21T16:26:35.258Z,6.43
2022-11-21T16:29:06.200Z,6.30
2022-11-21T16:31:33.426Z,5.50
2022-11-21T16:34:00.595Z,4.85
2022-11-21T16:36:29.395Z,4.22
2022-11-21T16:39:00.532Z,4.18
2022-11-21T16:41:30.082Z,3.80
2022-11-21T16:43:56.579Z,4.40
2022-11-21T16:46:24.644Z,3.50
2022-11-21T16:48:59.517Z,3.70
2022-11-21T16:51:26.307Z,3.45
2022-11-21T16:53:52.801Z,4.25
2022-11-21T16:56:19.313Z,4.32
2022-11-21T16:58:47.227Z,4.40
2022-11-21T17:01:25.359Z,4.78
2022-11-21T17:03:52.930Z,4.63
2022-11-21T17:06:23.175Z,5.10
2022-11-21T17:08:49.633Z,4.68
2022-11-21T17:13:47.133Z,5.32
2022-11-21T17:16:16.637Z,6.32
2022-11-21T17:18:43.751Z,5.88
2022-11-21T17:21:13.224Z,6.25
2022-11-21T17:23:42.255Z,7.40
2022-11-21T17:26:11.278Z,10.70
2022-11-21T17:28:45.052Z,12.10
2022-11-21T17:31:15.162Z,11.98
2022-11-21T17:33:43.308Z,11.07
2022-11-21T17:36:14.590Z,12.95
2022-11-21T17:38:42.488Z,17.48
2022-11-21T17:41:11.737Z,17.27
2022-11-21T17:43:38.518Z,20.13
2022-11-21T17:46:09.909Z,23.10
2022-11-21T17:48:37.318Z,25.33
2022-11-21T17:51:10.618Z,22.45
2022-11-21T17:53:38.922Z,17.42
2022-11-21T17:56:06.971Z,12.98
2022-11-21T17:58:34.108Z,12.88
2022-11-21T18:01:03.785Z,12.10
2022-11-21T18:03:31.167Z,12.68
2022-11-21T18:06:04.963Z,16.45
2022-11-21T18:08:33.345Z,22.27
2022-11-21T18:11:00.265Z,20.90
2022-11-21T18:13:28.752Z,15.95
2022-11-21T18:15:55.769Z,13.60
2022-11-21T18:18:22.295Z,11.27
2022-11-21T18:20:48.782Z,9.63
2022-11-21T18:23:15.249Z,10.63
2022-11-21T18:28:08.191Z,24.58
2022-11-21T18:30:34.735Z,25.05
2022-11-21T18:35:27.649Z,9.93
2022-11-21T18:37:55.539Z,7.20
2022-11-21T18:40:22.112Z,7.00
2022-11-21T18:42:48.581Z,6.15
2022-11-21T18:45:15.070Z,7.65
2022-11-21T18:47:41.731Z,7.22
2022-11-21T18:50:08.565Z,6.40
2022-11-21T18:52:38.192Z,7.85
2022-11-21T18:55:07.767Z,7.40
2022-11-21T18:57:34.232Z,7.40
2022-11-21T19:02:27.329Z,7.47
2022-11-21T19:04:53.787Z,7.88
2022-11-21T19:07:20.405Z,7.28
2022-11-21T19:09:46.869Z,8.20
2022-11-21T19:12:13.330Z,8.65
2022-11-21T19:17:06.087Z,7.05
2022-11-21T19:19:34.740Z,7.13
2022-11-21T19:22:04.134Z,7.47
2022-11-21T19:24:30.603Z,8.65
2022-11-21T19:26:57.100Z,9.43
2022-11-21T19:29:23.534Z,10.32
2022-11-21T19:34:16.499Z,12.27
2022-11-21T19:36:43.681Z,12.05
2022-11-21T19:39:10.305Z,11.32
2022-11-21T19:41:36.922Z,10.02
2022-11-21T19:44:04.025Z,8.52
2022-11-21T19:46:33.367Z,8.75
2022-11-21T19:49:01.288Z,9.02
2022-11-21T19:51:30.476Z,8.63
2022-11-21T19:53:57.152Z,10.05
2022-11-21T19:56:25.515Z,9.77
2022-11-21T19:58:52.920Z,9.52
2022-11-21T20:01:22.289Z,10.25
2022-11-21T20:03:51.002Z,9.80
2022-11-21T20:06:23.334Z,10.88
2022-11-21T20:08:54.203Z,9.77
2022-11-21T20:11:21.491Z,9.20
2022-11-21T20:13:49.050Z,10.30
2022-11-21T20:16:19.157Z,9.82
2022-11-21T20:18:46.133Z,10.77
2022-11-21T20:21:13.632Z,8.00
2022-11-21T20:23:40.874Z,8.63
2022-11-21T20:26:08.925Z,7.70
2022-11-21T20:28:36.797Z,11.00
2022-11-21T20:31:12.633Z,12.85
2022-11-21T20:33:43.917Z,12.52
2022-11-21T20:36:16.050Z,19.10
2022-11-21T20:38:43.122Z,20.00
2022-11-21T20:41:09.960Z,19.40
2022-11-21T20:44:14.417Z,20.75
2022-11-21T20:46:23.678Z,20.17
2022-11-21T20:48:50.509Z,22.00
2022-11-21T20:54:04.369Z,22.75
2022-11-21T20:56:35.857Z,20.15
2022-11-21T20:59:04.404Z,16.52
2022-11-21T21:01:31.895Z,14.68
2022-11-21T21:03:58.393Z,14.60
2022-11-21T21:08:52.692Z,13.70
2022-11-21T21:11:49.788Z,11.82
2022-11-21T21:14:08.578Z,12.85
2022-11-21T21:16:35.027Z,14.98
2022-11-21T21:21:30.632Z,26.50
2022-11-21T21:24:05.245Z,24.75
2022-11-21T21:26:41.803Z,17.52
2022-11-21T21:29:11.446Z,15.80
2022-11-21T21:31:37.899Z,14.82
2022-11-21T21:36:32.025Z,16.15
2022-11-21T21:39:00.191Z,13.80
2022-11-21T21:41:29.561Z,12.07
2022-11-21T21:43:57.346Z,11.65
2022-11-21T21:46:26.494Z,11.98
2022-11-21T21:48:55.865Z,11.15
2022-11-21T21:51:30.203Z,9.85
2022-11-21T21:53:58.749Z,12.50
2022-11-21T21:56:27.451Z,13.35
2022-11-21T21:58:54.188Z,15.32
2022-11-21T22:01:29.232Z,18.02
2022-11-21T22:03:58.008Z,14.77
2022-11-21T22:06:24.933Z,13.77
2022-11-21T22:08:52.061Z,11.95
2022-11-21T22:11:21.433Z,11.10
2022-11-21T22:13:51.992Z,10.85
2022-11-21T22:16:18.604Z,11.25
2022-11-21T22:18:45.262Z,12.40
2022-11-21T22:21:17.018Z,10.80
2022-11-21T22:24:02.916Z,10.23
2022-11-21T22:26:30.758Z,11.27
2022-11-21T22:28:57.251Z,10.00
2022-11-21T22:31:23.690Z,8.65
2022-11-21T22:33:50.143Z,8.52
2022-11-21T22:38:44.474Z,8.27
2022-11-21T22:41:16.840Z,7.90
2022-11-21T22:43:44.507Z,8.45
2022-11-21T22:46:12.734Z,7.32
2022-11-21T22:48:39.794Z,7.97
2022-11-21T22:51:07.600Z,7.18
2022-11-21T22:53:39.946Z,6.30
2022-11-21T22:56:09.749Z,7.72
2022-11-21T22:58:39.139Z,7.00
2022-11-21T23:18:09.519Z,6.70
2022-11-21T23:20:36.535Z,6.20
2022-11-21T23:23:03.095Z,6.70
2022-11-21T23:25:29.589Z,7.22
2022-11-21T23:27:56.083Z,6.03
2022-11-21T23:30:22.718Z,7.05
2022-11-21T23:32:49.557Z,8.20
2022-11-21T23:35:16.097Z,6.97
2022-11-21T23:37:42.555Z,8.20
2022-11-21T23:40:09.909Z,9.32
2022-11-21T23:42:36.446Z,9.52
2022-11-21T23:45:03.102Z,8.70
2022-11-21T23:47:29.660Z,8.20
2022-11-21T23:49:56.164Z,7.28
2022-11-21T23:52:22.704Z,6.88
2022-11-21T23:54:49.193Z,7.00
2022-11-21T23:57:15.716Z,7.47
2022-11-21T23:59:42.708Z,6.90
